sensor_id;sensor_type;location;lat;lon;timestamp;P1;durP1;ratioP1;P2;durP2;ratioP2
76566;SDS011;65428;53.194;6.132;2023-09-19T00:01:32;11.82;;;6.15;;
76566;SDS011;65428;53.194;6.132;2023-09-19T00:03:58;13.20;;;6.85;;
76566;SDS011;65428;53.194;6.132;2023-09-19T00:06:24;14.82;;;6.28;;
76566;SDS011;65428;53.194;6.132;2023-09-19T00:08:51;14.27;;;6.35;;
76566;SDS011;65428;53.194;6.132;2023-09-19T00:11:17;17.90;;;7.90;;
76566;SDS011;65428;53.194;6.132;2023-09-19T00:13:43;15.68;;;7.55;;
76566;SDS011;65428;53.194;6.132;2023-09-19T00:16:09;17.10;;;5.60;;
76566;SDS011;65428;53.194;6.132;2023-09-19T00:18:39;13.82;;;4.78;;
76566;SDS011;65428;53.194;6.132;2023-09-19T00:21:04;11.80;;;5.10;;
76566;SDS011;65428;53.194;6.132;2023-09-19T00:23:30;12.85;;;6.15;;
76566;SDS011;65428;53.194;6.132;2023-09-19T00:25:59;16.40;;;7.40;;
76566;SDS011;65428;53.194;6.132;2023-09-19T00:28:25;14.30;;;6.88;;
76566;SDS011;65428;53.194;6.132;2023-09-19T00:30:51;17.88;;;5.20;;
76566;SDS011;65428;53.194;6.132;2023-09-19T00:33:19;14.02;;;5.57;;
76566;SDS011;65428;53.194;6.132;2023-09-19T00:35:49;14.87;;;5.70;;
76566;SDS011;65428;53.194;6.132;2023-09-19T00:38:18;14.83;;;5.07;;
76566;SDS011;65428;53.194;6.132;2023-09-19T00:40:47;13.10;;;3.63;;
76566;SDS011;65428;53.194;6.132;2023-09-19T00:43:16;13.27;;;3.35;;
76566;SDS011;65428;53.194;6.132;2023-09-19T00:45:45;11.55;;;3.13;;
76566;SDS011;65428;53.194;6.132;2023-09-19T00:48:16;12.18;;;2.45;;
76566;SDS011;65428;53.194;6.132;2023-09-19T00:50:47;14.75;;;3.38;;
76566;SDS011;65428;53.194;6.132;2023-09-19T00:53:14;13.10;;;2.50;;
76566;SDS011;65428;53.194;6.132;2023-09-19T00:55:43;14.05;;;2.55;;
76566;SDS011;65428;53.194;6.132;2023-09-19T00:58:10;12.27;;;3.13;;
76566;SDS011;65428;53.194;6.132;2023-09-19T01:00:36;12.65;;;3.38;;
76566;SDS011;65428;53.194;6.132;2023-09-19T01:03:03;11.80;;;2.50;;
76566;SDS011;65428;53.194;6.132;2023-09-19T01:05:29;13.37;;;2.30;;
76566;SDS011;65428;53.194;6.132;2023-09-19T01:07:55;11.32;;;2.85;;
76566;SDS011;65428;53.194;6.132;2023-09-19T01:10:21;10.60;;;2.50;;
76566;SDS011;65428;53.194;6.132;2023-09-19T01:18:21;13.52;;;2.97;;
76566;SDS011;65428;53.194;6.132;2023-09-19T01:27:08;11.38;;;2.83;;
76566;SDS011;65428;53.194;6.132;2023-09-19T01:30:06;11.45;;;2.83;;
76566;SDS011;65428;53.194;6.132;2023-09-19T01:32:36;14.43;;;3.63;;
76566;SDS011;65428;53.194;6.132;2023-09-19T01:35:03;12.73;;;2.92;;
76566;SDS011;65428;53.194;6.132;2023-09-19T01:37:29;13.15;;;3.00;;
76566;SDS011;65428;53.194;6.132;2023-09-19T01:39:57;12.73;;;3.40;;
76566;SDS011;65428;53.194;6.132;2023-09-19T01:47:53;10.30;;;2.60;;
76566;SDS011;65428;53.194;6.132;2023-09-19T01:55:58;9.55;;;1.80;;
76566;SDS011;65428;53.194;6.132;2023-09-19T02:01:00;10.15;;;2.40;;
76566;SDS011;65428;53.194;6.132;2023-09-19T02:03:26;13.98;;;2.03;;
76566;SDS011;65428;53.194;6.132;2023-09-19T02:05:53;14.18;;;2.40;;
76566;SDS011;65428;53.194;6.132;2023-09-19T02:08:20;9.52;;;1.88;;
76566;SDS011;65428;53.194;6.132;2023-09-19T02:10:50;14.48;;;2.47;;
76566;SDS011;65428;53.194;6.132;2023-09-19T02:13:21;9.98;;;2.00;;
76566;SDS011;65428;53.194;6.132;2023-09-19T02:15:52;12.38;;;2.00;;
76566;SDS011;65428;53.194;6.132;2023-09-19T02:18:18;12.15;;;2.00;;
76566;SDS011;65428;53.194;6.132;2023-09-19T02:20:45;12.15;;;2.63;;
76566;SDS011;65428;53.194;6.132;2023-09-19T02:23:11;8.98;;;1.50;;
76566;SDS011;65428;53.194;6.132;2023-09-19T02:25:37;10.20;;;1.50;;
76566;SDS011;65428;53.194;6.132;2023-09-19T02:28:05;9.37;;;1.60;;
76566;SDS011;65428;53.194;6.132;2023-09-19T02:30:31;12.55;;;2.45;;
76566;SDS011;65428;53.194;6.132;2023-09-19T02:32:57;11.23;;;2.10;;
76566;SDS011;65428;53.194;6.132;2023-09-19T02:35:26;11.17;;;1.47;;
76566;SDS011;65428;53.194;6.132;2023-09-19T02:37:53;10.35;;;1.65;;
76566;SDS011;65428;53.194;6.132;2023-09-19T02:40:18;13.10;;;1.58;;
76566;SDS011;65428;53.194;6.132;2023-09-19T02:42:45;13.80;;;1.73;;
76566;SDS011;65428;53.194;6.132;2023-09-19T02:45:14;9.40;;;1.70;;
76566;SDS011;65428;53.194;6.132;2023-09-19T02:47:40;13.18;;;1.60;;
76566;SDS011;65428;53.194;6.132;2023-09-19T02:50:06;10.03;;;1.63;;
76566;SDS011;65428;53.194;6.132;2023-09-19T02:52:31;9.93;;;1.70;;
76566;SDS011;65428;53.194;6.132;2023-09-19T02:54:57;7.75;;;1.35;;
76566;SDS011;65428;53.194;6.132;2023-09-19T02:57:23;10.63;;;1.27;;
76566;SDS011;65428;53.194;6.132;2023-09-19T02:59:49;8.17;;;1.10;;
76566;SDS011;65428;53.194;6.132;2023-09-19T03:02:15;10.15;;;1.55;;
76566;SDS011;65428;53.194;6.132;2023-09-19T03:04:41;9.60;;;1.40;;
76566;SDS011;65428;53.194;6.132;2023-09-19T03:07:06;9.32;;;1.15;;
76566;SDS011;65428;53.194;6.132;2023-09-19T03:09:35;10.60;;;0.90;;
76566;SDS011;65428;53.194;6.132;2023-09-19T03:12:04;13.90;;;1.70;;
76566;SDS011;65428;53.194;6.132;2023-09-19T03:14:31;12.65;;;1.60;;
76566;SDS011;65428;53.194;6.132;2023-09-19T03:17:00;8.70;;;1.23;;
76566;SDS011;65428;53.194;6.132;2023-09-19T03:19:29;9.07;;;1.50;;
76566;SDS011;65428;53.194;6.132;2023-09-19T03:21:56;8.13;;;1.30;;
76566;SDS011;65428;53.194;6.132;2023-09-19T03:24:22;10.23;;;1.43;;
76566;SDS011;65428;53.194;6.132;2023-09-19T03:26:48;11.27;;;1.50;;
76566;SDS011;65428;53.194;6.132;2023-09-19T03:29:20;8.98;;;1.67;;
76566;SDS011;65428;53.194;6.132;2023-09-19T03:31:53;12.02;;;1.40;;
76566;SDS011;65428;53.194;6.132;2023-09-19T03:34:19;12.90;;;1.73;;
76566;SDS011;65428;53.194;6.132;2023-09-19T03:36:45;9.60;;;1.60;;
76566;SDS011;65428;53.194;6.132;2023-09-19T03:39:11;9.53;;;1.53;;
76566;SDS011;65428;53.194;6.132;2023-09-19T03:41:37;8.38;;;1.13;;
76566;SDS011;65428;53.194;6.132;2023-09-19T03:44:04;10.10;;;1.58;;
76566;SDS011;65428;53.194;6.132;2023-09-19T03:46:29;8.53;;;1.20;;
76566;SDS011;65428;53.194;6.132;2023-09-19T03:48:55;8.35;;;1.45;;
76566;SDS011;65428;53.194;6.132;2023-09-19T03:51:21;9.50;;;1.25;;
76566;SDS011;65428;53.194;6.132;2023-09-19T03:53:46;11.43;;;1.30;;
76566;SDS011;65428;53.194;6.132;2023-09-19T03:56:14;8.57;;;1.08;;
76566;SDS011;65428;53.194;6.132;2023-09-19T03:58:40;10.40;;;1.38;;
76566;SDS011;65428;53.194;6.132;2023-09-19T04:01:06;10.17;;;1.20;;
76566;SDS011;65428;53.194;6.132;2023-09-19T04:03:34;10.55;;;1.30;;
76566;SDS011;65428;53.194;6.132;2023-09-19T04:06:14;13.63;;;1.85;;
76566;SDS011;65428;53.194;6.132;2023-09-19T04:08:45;10.13;;;0.80;;
76566;SDS011;65428;53.194;6.132;2023-09-19T04:11:12;9.35;;;1.25;;
76566;SDS011;65428;53.194;6.132;2023-09-19T04:13:38;9.48;;;1.08;;
76566;SDS011;65428;53.194;6.132;2023-09-19T04:16:06;9.02;;;1.00;;
76566;SDS011;65428;53.194;6.132;2023-09-19T04:18:32;8.77;;;1.13;;
76566;SDS011;65428;53.194;6.132;2023-09-19T04:20:58;11.40;;;1.85;;
76566;SDS011;65428;53.194;6.132;2023-09-19T04:23:27;11.80;;;1.30;;
76566;SDS011;65428;53.194;6.132;2023-09-19T04:25:53;9.40;;;1.20;;
76566;SDS011;65428;53.194;6.132;2023-09-19T04:28:19;12.10;;;1.50;;
76566;SDS011;65428;53.194;6.132;2023-09-19T04:30:44;9.98;;;1.30;;
76566;SDS011;65428;53.194;6.132;2023-09-19T04:33:10;9.98;;;1.25;;
76566;SDS011;65428;53.194;6.132;2023-09-19T04:35:39;7.75;;;1.40;;
76566;SDS011;65428;53.194;6.132;2023-09-19T04:38:07;8.15;;;1.20;;
76566;SDS011;65428;53.194;6.132;2023-09-19T04:40:33;11.10;;;1.35;;
76566;SDS011;65428;53.194;6.132;2023-09-19T04:42:59;10.13;;;1.42;;
76566;SDS011;65428;53.194;6.132;2023-09-19T04:45:29;10.95;;;1.30;;
76566;SDS011;65428;53.194;6.132;2023-09-19T04:47:55;12.38;;;1.40;;
76566;SDS011;65428;53.194;6.132;2023-09-19T04:50:21;10.52;;;1.58;;
76566;SDS011;65428;53.194;6.132;2023-09-19T04:52:51;13.83;;;1.73;;
76566;SDS011;65428;53.194;6.132;2023-09-19T04:55:17;10.10;;;1.35;;
76566;SDS011;65428;53.194;6.132;2023-09-19T04:57:44;11.13;;;1.00;;
76566;SDS011;65428;53.194;6.132;2023-09-19T05:00:14;9.40;;;1.57;;
76566;SDS011;65428;53.194;6.132;2023-09-19T05:02:44;11.88;;;1.20;;
76566;SDS011;65428;53.194;6.132;2023-09-19T05:05:10;8.38;;;1.05;;
76566;SDS011;65428;53.194;6.132;2023-09-19T05:07:43;9.80;;;1.00;;
76566;SDS011;65428;53.194;6.132;2023-09-19T05:10:12;9.10;;;1.30;;
76566;SDS011;65428;53.194;6.132;2023-09-19T05:12:38;10.95;;;1.38;;
76566;SDS011;65428;53.194;6.132;2023-09-19T05:15:08;10.87;;;1.17;;
76566;SDS011;65428;53.194;6.132;2023-09-19T05:17:34;9.83;;;0.90;;
76566;SDS011;65428;53.194;6.132;2023-09-19T05:20:01;10.67;;;1.20;;
76566;SDS011;65428;53.194;6.132;2023-09-19T05:22:41;11.43;;;1.67;;
76566;SDS011;65428;53.194;6.132;2023-09-19T05:25:08;10.52;;;1.20;;
76566;SDS011;65428;53.194;6.132;2023-09-19T05:27:45;10.75;;;1.58;;
76566;SDS011;65428;53.194;6.132;2023-09-19T05:30:12;9.45;;;1.27;;
76566;SDS011;65428;53.194;6.132;2023-09-19T05:32:40;9.35;;;1.10;;
76566;SDS011;65428;53.194;6.132;2023-09-19T05:35:09;10.88;;;1.13;;
76566;SDS011;65428;53.194;6.132;2023-09-19T05:37:35;7.70;;;1.00;;
76566;SDS011;65428;53.194;6.132;2023-09-19T05:40:02;8.95;;;1.02;;
76566;SDS011;65428;53.194;6.132;2023-09-19T05:42:34;8.43;;;1.00;;
76566;SDS011;65428;53.194;6.132;2023-09-19T05:45:05;10.38;;;1.00;;
76566;SDS011;65428;53.194;6.132;2023-09-19T05:47:40;8.20;;;0.75;;
76566;SDS011;65428;53.194;6.132;2023-09-19T05:50:11;9.27;;;1.40;;
76566;SDS011;65428;53.194;6.132;2023-09-19T05:52:40;8.77;;;0.90;;
76566;SDS011;65428;53.194;6.132;2023-09-19T05:55:09;7.25;;;0.88;;
76566;SDS011;65428;53.194;6.132;2023-09-19T05:57:36;8.45;;;0.90;;
76566;SDS011;65428;53.194;6.132;2023-09-19T06:00:13;7.85;;;1.23;;
76566;SDS011;65428;53.194;6.132;2023-09-19T06:02:44;8.98;;;0.93;;
76566;SDS011;65428;53.194;6.132;2023-09-19T06:05:12;13.47;;;1.70;;
76566;SDS011;65428;53.194;6.132;2023-09-19T06:07:38;10.02;;;1.30;;
76566;SDS011;65428;53.194;6.132;2023-09-19T06:10:10;6.85;;;0.77;;
76566;SDS011;65428;53.194;6.132;2023-09-19T06:12:39;9.75;;;1.15;;
76566;SDS011;65428;53.194;6.132;2023-09-19T06:15:11;8.87;;;1.23;;
76566;SDS011;65428;53.194;6.132;2023-09-19T06:17:41;7.33;;;0.80;;
76566;SDS011;65428;53.194;6.132;2023-09-19T06:20:20;8.93;;;0.83;;
76566;SDS011;65428;53.194;6.132;2023-09-19T06:22:47;11.48;;;1.50;;
76566;SDS011;65428;53.194;6.132;2023-09-19T06:25:14;7.68;;;1.20;;
76566;SDS011;65428;53.194;6.132;2023-09-19T06:27:53;8.70;;;1.07;;
76566;SDS011;65428;53.194;6.132;2023-09-19T06:30:25;8.68;;;1.00;;
76566;SDS011;65428;53.194;6.132;2023-09-19T06:32:59;7.93;;;0.80;;
76566;SDS011;65428;53.194;6.132;2023-09-19T06:35:28;9.43;;;0.85;;
76566;SDS011;65428;53.194;6.132;2023-09-19T06:37:58;11.10;;;1.20;;
76566;SDS011;65428;53.194;6.132;2023-09-19T06:40:24;6.40;;;0.82;;
76566;SDS011;65428;53.194;6.132;2023-09-19T06:42:50;9.43;;;1.10;;
76566;SDS011;65428;53.194;6.132;2023-09-19T06:45:17;9.88;;;1.10;;
76566;SDS011;65428;53.194;6.132;2023-09-19T06:47:46;9.18;;;0.98;;
76566;SDS011;65428;53.194;6.132;2023-09-19T06:50:16;7.15;;;0.60;;
76566;SDS011;65428;53.194;6.132;2023-09-19T06:52:44;9.45;;;0.80;;
76566;SDS011;65428;53.194;6.132;2023-09-19T06:55:10;9.10;;;1.20;;
76566;SDS011;65428;53.194;6.132;2023-09-19T06:57:38;6.03;;;0.73;;
76566;SDS011;65428;53.194;6.132;2023-09-19T07:00:06;6.60;;;0.70;;
76566;SDS011;65428;53.194;6.132;2023-09-19T07:02:44;9.70;;;0.87;;
76566;SDS011;65428;53.194;6.132;2023-09-19T07:05:11;7.75;;;0.90;;
76566;SDS011;65428;53.194;6.132;2023-09-19T07:07:37;7.40;;;1.02;;
76566;SDS011;65428;53.194;6.132;2023-09-19T07:10:03;8.43;;;1.03;;
76566;SDS011;65428;53.194;6.132;2023-09-19T07:12:30;7.80;;;0.82;;
76566;SDS011;65428;53.194;6.132;2023-09-19T07:14:58;9.23;;;1.10;;
76566;SDS011;65428;53.194;6.132;2023-09-19T07:17:31;6.70;;;1.00;;
76566;SDS011;65428;53.194;6.132;2023-09-19T07:19:58;7.38;;;0.80;;
76566;SDS011;65428;53.194;6.132;2023-09-19T07:22:24;6.47;;;1.08;;
76566;SDS011;65428;53.194;6.132;2023-09-19T07:24:51;9.20;;;0.90;;
76566;SDS011;65428;53.194;6.132;2023-09-19T07:27:17;6.70;;;1.10;;
76566;SDS011;65428;53.194;6.132;2023-09-19T07:29:43;8.57;;;1.20;;
76566;SDS011;65428;53.194;6.132;2023-09-19T07:32:09;8.35;;;1.10;;
76566;SDS011;65428;53.194;6.132;2023-09-19T07:34:36;6.32;;;1.20;;
76566;SDS011;65428;53.194;6.132;2023-09-19T07:37:05;10.40;;;1.42;;
76566;SDS011;65428;53.194;6.132;2023-09-19T07:39:31;8.32;;;1.20;;
76566;SDS011;65428;53.194;6.132;2023-09-19T07:42:15;8.48;;;0.95;;
76566;SDS011;65428;53.194;6.132;2023-09-19T07:44:53;9.63;;;1.40;;
76566;SDS011;65428;53.194;6.132;2023-09-19T07:47:22;8.38;;;0.95;;
76566;SDS011;65428;53.194;6.132;2023-09-19T07:49:51;8.75;;;1.20;;
76566;SDS011;65428;53.194;6.132;2023-09-19T07:52:17;8.95;;;1.15;;
76566;SDS011;65428;53.194;6.132;2023-09-19T07:54:47;9.20;;;1.17;;
76566;SDS011;65428;53.194;6.132;2023-09-19T07:57:39;10.68;;;1.20;;
76566;SDS011;65428;53.194;6.132;2023-09-19T08:00:08;10.00;;;1.23;;
76566;SDS011;65428;53.194;6.132;2023-09-19T08:02:38;9.80;;;1.20;;
76566;SDS011;65428;53.194;6.132;2023-09-19T08:05:05;10.75;;;1.65;;
76566;SDS011;65428;53.194;6.132;2023-09-19T08:07:40;10.43;;;1.65;;
76566;SDS011;65428;53.194;6.132;2023-09-19T08:10:07;9.68;;;1.60;;
76566;SDS011;65428;53.194;6.132;2023-09-19T08:12:46;8.25;;;1.52;;
76566;SDS011;65428;53.194;6.132;2023-09-19T08:15:16;6.50;;;0.90;;
76566;SDS011;65428;53.194;6.132;2023-09-19T08:17:47;8.15;;;1.40;;
76566;SDS011;65428;53.194;6.132;2023-09-19T08:20:13;9.82;;;1.45;;
76566;SDS011;65428;53.194;6.132;2023-09-19T08:22:50;9.43;;;0.90;;
76566;SDS011;65428;53.194;6.132;2023-09-19T08:25:20;7.70;;;1.13;;
76566;SDS011;65428;53.194;6.132;2023-09-19T08:27:47;11.90;;;1.50;;
76566;SDS011;65428;53.194;6.132;2023-09-19T08:30:23;9.23;;;1.20;;
76566;SDS011;65428;53.194;6.132;2023-09-19T08:33:05;8.87;;;1.47;;
76566;SDS011;65428;53.194;6.132;2023-09-19T08:35:40;8.93;;;1.30;;
76566;SDS011;65428;53.194;6.132;2023-09-19T08:41:01;8.82;;;1.33;;
76566;SDS011;65428;53.194;6.132;2023-09-19T08:46:44;8.60;;;1.15;;
76566;SDS011;65428;53.194;6.132;2023-09-19T08:49:20;7.88;;;1.25;;
76566;SDS011;65428;53.194;6.132;2023-09-19T08:52:23;9.05;;;1.48;;
76566;SDS011;65428;53.194;6.132;2023-09-19T08:55:11;8.88;;;1.27;;
76566;SDS011;65428;53.194;6.132;2023-09-19T08:58:01;8.18;;;1.65;;
76566;SDS011;65428;53.194;6.132;2023-09-19T09:00:28;8.70;;;1.60;;
76566;SDS011;65428;53.194;6.132;2023-09-19T09:02:55;11.95;;;1.52;;
76566;SDS011;65428;53.194;6.132;2023-09-19T09:05:29;7.70;;;1.10;;
76566;SDS011;65428;53.194;6.132;2023-09-19T09:08:12;9.90;;;1.58;;
76566;SDS011;65428;53.194;6.132;2023-09-19T09:10:40;9.18;;;1.38;;
76566;SDS011;65428;53.194;6.132;2023-09-19T09:13:16;10.60;;;1.63;;
76566;SDS011;65428;53.194;6.132;2023-09-19T09:19:12;8.68;;;1.55;;
76566;SDS011;65428;53.194;6.132;2023-09-19T09:21:37;8.53;;;1.67;;
76566;SDS011;65428;53.194;6.132;2023-09-19T09:26:56;7.80;;;1.30;;
76566;SDS011;65428;53.194;6.132;2023-09-19T09:29:44;12.63;;;1.65;;
76566;SDS011;65428;53.194;6.132;2023-09-19T09:32:24;9.25;;;1.35;;
76566;SDS011;65428;53.194;6.132;2023-09-19T09:37:21;11.25;;;1.60;;
76566;SDS011;65428;53.194;6.132;2023-09-19T09:39:53;8.20;;;1.35;;
76566;SDS011;65428;53.194;6.132;2023-09-19T09:47:58;9.55;;;1.83;;
76566;SDS011;65428;53.194;6.132;2023-09-19T09:53:28;9.45;;;1.50;;
76566;SDS011;65428;53.194;6.132;2023-09-19T09:56:07;10.48;;;1.60;;
76566;SDS011;65428;53.194;6.132;2023-09-19T09:58:38;9.27;;;1.60;;
76566;SDS011;65428;53.194;6.132;2023-09-19T10:01:16;10.85;;;1.70;;
76566;SDS011;65428;53.194;6.132;2023-09-19T10:03:43;8.85;;;1.58;;
76566;SDS011;65428;53.194;6.132;2023-09-19T10:06:17;9.97;;;1.90;;
76566;SDS011;65428;53.194;6.132;2023-09-19T10:09:07;12.05;;;1.70;;
76566;SDS011;65428;53.194;6.132;2023-09-19T10:11:43;10.90;;;1.65;;
76566;SDS011;65428;53.194;6.132;2023-09-19T10:14:16;13.80;;;1.83;;
76566;SDS011;65428;53.194;6.132;2023-09-19T10:16:46;11.20;;;2.20;;
76566;SDS011;65428;53.194;6.132;2023-09-19T10:19:23;11.35;;;1.75;;
76566;SDS011;65428;53.194;6.132;2023-09-19T10:21:58;12.55;;;2.20;;
76566;SDS011;65428;53.194;6.132;2023-09-19T10:24:30;8.98;;;1.70;;
76566;SDS011;65428;53.194;6.132;2023-09-19T10:26:59;11.18;;;1.88;;
76566;SDS011;65428;53.194;6.132;2023-09-19T10:29:25;12.13;;;2.30;;
76566;SDS011;65428;53.194;6.132;2023-09-19T10:31:56;11.07;;;1.73;;
76566;SDS011;65428;53.194;6.132;2023-09-19T10:34:23;9.52;;;1.92;;
76566;SDS011;65428;53.194;6.132;2023-09-19T10:36:51;11.50;;;2.55;;
76566;SDS011;65428;53.194;6.132;2023-09-19T10:39:19;12.57;;;1.77;;
76566;SDS011;65428;53.194;6.132;2023-09-19T10:41:51;10.23;;;1.83;;
76566;SDS011;65428;53.194;6.132;2023-09-19T10:44:25;9.63;;;2.10;;
76566;SDS011;65428;53.194;6.132;2023-09-19T10:46:54;9.93;;;2.00;;
76566;SDS011;65428;53.194;6.132;2023-09-19T10:49:20;12.23;;;2.63;;
76566;SDS011;65428;53.194;6.132;2023-09-19T10:51:47;9.33;;;2.57;;
76566;SDS011;65428;53.194;6.132;2023-09-19T10:54:19;11.15;;;1.95;;
76566;SDS011;65428;53.194;6.132;2023-09-19T10:56:51;10.68;;;1.75;;
76566;SDS011;65428;53.194;6.132;2023-09-19T10:59:19;12.00;;;2.27;;
76566;SDS011;65428;53.194;6.132;2023-09-19T11:07:13;10.70;;;1.70;;
76566;SDS011;65428;53.194;6.132;2023-09-19T11:09:47;11.52;;;2.55;;
76566;SDS011;65428;53.194;6.132;2023-09-19T11:15:03;10.82;;;2.17;;
76566;SDS011;65428;53.194;6.132;2023-09-19T11:17:36;10.50;;;2.05;;
76566;SDS011;65428;53.194;6.132;2023-09-19T11:36:09;11.27;;;2.03;;
76566;SDS011;65428;53.194;6.132;2023-09-19T11:43:52;10.82;;;2.22;;
76566;SDS011;65428;53.194;6.132;2023-09-19T11:46:24;10.23;;;2.30;;
76566;SDS011;65428;53.194;6.132;2023-09-19T11:48:50;10.40;;;2.10;;
76566;SDS011;65428;53.194;6.132;2023-09-19T11:51:17;11.88;;;2.22;;
76566;SDS011;65428;53.194;6.132;2023-09-19T11:53:51;12.05;;;2.10;;
76566;SDS011;65428;53.194;6.132;2023-09-19T11:56:18;8.23;;;1.75;;
76566;SDS011;65428;53.194;6.132;2023-09-19T11:58:49;12.10;;;1.90;;
76566;SDS011;65428;53.194;6.132;2023-09-19T12:01:27;11.18;;;1.88;;
76566;SDS011;65428;53.194;6.132;2023-09-19T12:03:54;10.30;;;2.25;;
76566;SDS011;65428;53.194;6.132;2023-09-19T12:06:27;12.33;;;1.97;;
76566;SDS011;65428;53.194;6.132;2023-09-19T12:09:04;10.35;;;2.28;;
76566;SDS011;65428;53.194;6.132;2023-09-19T12:11:40;10.15;;;1.73;;
76566;SDS011;65428;53.194;6.132;2023-09-19T12:14:09;13.95;;;3.22;;
76566;SDS011;65428;53.194;6.132;2023-09-19T12:16:35;11.38;;;2.80;;
76566;SDS011;65428;53.194;6.132;2023-09-19T12:19:17;12.20;;;2.92;;
76566;SDS011;65428;53.194;6.132;2023-09-19T12:21:57;13.15;;;4.35;;
76566;SDS011;65428;53.194;6.132;2023-09-19T12:24:25;14.30;;;4.10;;
76566;SDS011;65428;53.194;6.132;2023-09-19T12:27:04;12.38;;;3.03;;
76566;SDS011;65428;53.194;6.132;2023-09-19T12:29:31;11.93;;;2.60;;
76566;SDS011;65428;53.194;6.132;2023-09-19T12:32:06;11.77;;;2.22;;
76566;SDS011;65428;53.194;6.132;2023-09-19T12:34:32;10.15;;;2.17;;
76566;SDS011;65428;53.194;6.132;2023-09-19T12:40:03;14.30;;;2.40;;
76566;SDS011;65428;53.194;6.132;2023-09-19T12:42:47;7.88;;;1.60;;
76566;SDS011;65428;53.194;6.132;2023-09-19T12:45:14;8.20;;;1.55;;
76566;SDS011;65428;53.194;6.132;2023-09-19T12:53:40;6.45;;;1.30;;
76566;SDS011;65428;53.194;6.132;2023-09-19T12:56:11;7.65;;;1.35;;
76566;SDS011;65428;53.194;6.132;2023-09-19T12:58:49;8.68;;;1.20;;
76566;SDS011;65428;53.194;6.132;2023-09-19T13:01:27;8.65;;;1.50;;
76566;SDS011;65428;53.194;6.132;2023-09-19T13:04:13;7.53;;;1.17;;
76566;SDS011;65428;53.194;6.132;2023-09-19T13:06:51;9.50;;;1.42;;
76566;SDS011;65428;53.194;6.132;2023-09-19T13:09:21;8.35;;;1.45;;
76566;SDS011;65428;53.194;6.132;2023-09-19T13:11:50;8.02;;;1.70;;
76566;SDS011;65428;53.194;6.132;2023-09-19T13:14:18;6.38;;;1.33;;
76566;SDS011;65428;53.194;6.132;2023-09-19T13:19:39;10.50;;;1.67;;
76566;SDS011;65428;53.194;6.132;2023-09-19T13:22:56;8.13;;;1.20;;
76566;SDS011;65428;53.194;6.132;2023-09-19T13:25:18;9.48;;;1.45;;
76566;SDS011;65428;53.194;6.132;2023-09-19T13:27:46;7.40;;;1.27;;
76566;SDS011;65428;53.194;6.132;2023-09-19T13:30:13;8.77;;;1.25;;
76566;SDS011;65428;53.194;6.132;2023-09-19T13:32:39;7.90;;;1.00;;
76566;SDS011;65428;53.194;6.132;2023-09-19T13:35:06;8.65;;;1.05;;
76566;SDS011;65428;53.194;6.132;2023-09-19T13:37:34;5.50;;;0.90;;
76566;SDS011;65428;53.194;6.132;2023-09-19T13:40:09;7.80;;;0.98;;
76566;SDS011;65428;53.194;6.132;2023-09-19T13:42:36;6.93;;;0.90;;
76566;SDS011;65428;53.194;6.132;2023-09-19T13:45:06;5.72;;;0.70;;
76566;SDS011;65428;53.194;6.132;2023-09-19T13:47:36;5.13;;;0.68;;
76566;SDS011;65428;53.194;6.132;2023-09-19T13:50:03;5.32;;;0.70;;
76566;SDS011;65428;53.194;6.132;2023-09-19T13:52:30;6.75;;;0.65;;
76566;SDS011;65428;53.194;6.132;2023-09-19T13:54:56;6.03;;;0.75;;
76566;SDS011;65428;53.194;6.132;2023-09-19T13:57:23;5.82;;;0.70;;
76566;SDS011;65428;53.194;6.132;2023-09-19T13:59:49;5.30;;;0.70;;
76566;SDS011;65428;53.194;6.132;2023-09-19T14:02:15;6.28;;;0.95;;
76566;SDS011;65428;53.194;6.132;2023-09-19T14:04:43;6.45;;;1.00;;
76566;SDS011;65428;53.194;6.132;2023-09-19T14:07:09;5.72;;;0.90;;
76566;SDS011;65428;53.194;6.132;2023-09-19T14:09:36;5.00;;;1.10;;
76566;SDS011;65428;53.194;6.132;2023-09-19T14:12:02;5.50;;;0.75;;
76566;SDS011;65428;53.194;6.132;2023-09-19T14:14:28;6.97;;;1.00;;
76566;SDS011;65428;53.194;6.132;2023-09-19T14:16:53;5.90;;;1.05;;
76566;SDS011;65428;53.194;6.132;2023-09-19T14:19:20;8.00;;;1.17;;
76566;SDS011;65428;53.194;6.132;2023-09-19T14:21:46;7.25;;;1.23;;
76566;SDS011;65428;53.194;6.132;2023-09-19T14:24:16;6.72;;;1.50;;
76566;SDS011;65428;53.194;6.132;2023-09-19T14:26:42;5.78;;;1.17;;
76566;SDS011;65428;53.194;6.132;2023-09-19T14:29:09;10.17;;;1.43;;
76566;SDS011;65428;53.194;6.132;2023-09-19T14:31:37;6.28;;;1.10;;
76566;SDS011;65428;53.194;6.132;2023-09-19T14:34:05;9.07;;;1.60;;
76566;SDS011;65428;53.194;6.132;2023-09-19T14:36:30;6.30;;;1.10;;
76566;SDS011;65428;53.194;6.132;2023-09-19T14:38:57;6.25;;;1.30;;
76566;SDS011;65428;53.194;6.132;2023-09-19T14:41:26;6.28;;;1.08;;
76566;SDS011;65428;53.194;6.132;2023-09-19T14:43:52;8.53;;;1.53;;
76566;SDS011;65428;53.194;6.132;2023-09-19T14:46:17;7.15;;;1.30;;
76566;SDS011;65428;53.194;6.132;2023-09-19T14:48:44;6.43;;;1.23;;
76566;SDS011;65428;53.194;6.132;2023-09-19T14:51:13;6.97;;;1.52;;
76566;SDS011;65428;53.194;6.132;2023-09-19T14:53:42;7.77;;;1.50;;
76566;SDS011;65428;53.194;6.132;2023-09-19T14:56:08;7.43;;;1.40;;
76566;SDS011;65428;53.194;6.132;2023-09-19T14:58:34;7.20;;;1.30;;
76566;SDS011;65428;53.194;6.132;2023-09-19T15:01:07;7.57;;;1.50;;
76566;SDS011;65428;53.194;6.132;2023-09-19T15:03:37;6.10;;;1.10;;
76566;SDS011;65428;53.194;6.132;2023-09-19T15:06:08;8.23;;;1.63;;
76566;SDS011;65428;53.194;6.132;2023-09-19T15:08:37;7.97;;;1.17;;
76566;SDS011;65428;53.194;6.132;2023-09-19T15:11:06;6.13;;;1.23;;
76566;SDS011;65428;53.194;6.132;2023-09-19T15:13:35;6.15;;;1.73;;
76566;SDS011;65428;53.194;6.132;2023-09-19T15:16:02;8.55;;;1.58;;
76566;SDS011;65428;53.194;6.132;2023-09-19T15:18:29;7.68;;;1.52;;
76566;SDS011;65428;53.194;6.132;2023-09-19T15:20:56;8.13;;;1.57;;
76566;SDS011;65428;53.194;6.132;2023-09-19T15:23:22;6.32;;;1.25;;
76566;SDS011;65428;53.194;6.132;2023-09-19T15:25:48;8.83;;;1.80;;
76566;SDS011;65428;53.194;6.132;2023-09-19T15:28:14;7.57;;;1.73;;
76566;SDS011;65428;53.194;6.132;2023-09-19T15:30:40;6.80;;;1.55;;
76566;SDS011;65428;53.194;6.132;2023-09-19T15:33:06;8.03;;;1.67;;
76566;SDS011;65428;53.194;6.132;2023-09-19T15:35:31;7.88;;;1.65;;
76566;SDS011;65428;53.194;6.132;2023-09-19T15:37:57;6.73;;;1.67;;
76566;SDS011;65428;53.194;6.132;2023-09-19T15:40:26;6.60;;;1.15;;
76566;SDS011;65428;53.194;6.132;2023-09-19T15:42:52;6.78;;;1.70;;
76566;SDS011;65428;53.194;6.132;2023-09-19T15:45:19;5.57;;;1.25;;
76566;SDS011;65428;53.194;6.132;2023-09-19T15:47:46;7.50;;;1.67;;
76566;SDS011;65428;53.194;6.132;2023-09-19T15:50:12;8.05;;;1.80;;
76566;SDS011;65428;53.194;6.132;2023-09-19T15:52:44;10.70;;;1.98;;
76566;SDS011;65428;53.194;6.132;2023-09-19T15:55:12;6.78;;;1.75;;
76566;SDS011;65428;53.194;6.132;2023-09-19T15:57:40;6.78;;;1.70;;
76566;SDS011;65428;53.194;6.132;2023-09-19T16:00:05;8.50;;;1.85;;
76566;SDS011;65428;53.194;6.132;2023-09-19T16:02:39;9.27;;;2.03;;
76566;SDS011;65428;53.194;6.132;2023-09-19T16:05:07;10.60;;;2.38;;
76566;SDS011;65428;53.194;6.132;2023-09-19T16:07:36;10.27;;;2.67;;
76566;SDS011;65428;53.194;6.132;2023-09-19T16:10:03;10.05;;;2.38;;
76566;SDS011;65428;53.194;6.132;2023-09-19T16:12:29;7.78;;;2.40;;
76566;SDS011;65428;53.194;6.132;2023-09-19T16:14:55;10.33;;;2.20;;
76566;SDS011;65428;53.194;6.132;2023-09-19T16:17:21;8.60;;;2.38;;
76566;SDS011;65428;53.194;6.132;2023-09-19T16:19:47;9.47;;;2.70;;
76566;SDS011;65428;53.194;6.132;2023-09-19T16:22:12;8.48;;;2.45;;
76566;SDS011;65428;53.194;6.132;2023-09-19T16:24:39;9.18;;;2.58;;
76566;SDS011;65428;53.194;6.132;2023-09-19T16:27:04;9.10;;;2.60;;